METAR Data
IDs: Format: Raw Decoded Include TAF

Data at: 0232 UTC 20 Jan 2022

METAR for:K6B9 (Skaneateles Arpt, NY, US)
Text:K6B9 200215Z AUTO 27007G13KT 10SM OVC048 03/M01 A2990 RMK AO2
Temperature: 3.0°C ( 37°F)
Dewpoint: -1.0°C ( 30°F) [RH = 75%]
Pressure (altimeter):29.90 inches Hg (1012.6 mb)
Winds:from the W (270 degrees) at 8 MPH (7 knots; 3.6 m/s) gusting to 15 MPH (13 knots; 6.7 m/s)
Visibility:10 or more sm (16+ km)
Ceiling:4800 feet AGL
Clouds: overcast cloud deck at 4800 feet AGL
QC Flag:automated observation with no human augmentation
Text:K6B9 200155Z AUTO 27009G19KT 10SM BKN043 OVC055 03/M01 A2988 RMK AO2
Temperature: 3.0°C ( 37°F)
Dewpoint: -1.0°C ( 30°F) [RH = 75%]
Pressure (altimeter):29.88 inches Hg (1011.9 mb)
Winds:from the W (270 degrees) at 10 MPH (9 knots; 4.6 m/s) gusting to 22 MPH (19 knots; 9.8 m/s)
Visibility:10 or more sm (16+ km)
Ceiling:4300 feet AGL
Clouds: broken clouds at 4300 feet AGL, overcast cloud deck at 5500 feet AGL
QC Flag:automated observation with no human augmentation
Text:K6B9 200135Z AUTO 28009KT 10SM BKN036 BKN043 OVC055 03/M00 A2988 RMK AO2
Temperature: 3.0°C ( 37°F)
Dewpoint: 0.0°C ( 32°F) [RH = 81%]
Pressure (altimeter):29.88 inches Hg (1011.9 mb)
Winds:from the W (280 degrees) at 10 MPH (9 knots; 4.6 m/s)
Visibility:10 or more sm (16+ km)
Ceiling:3600 feet AGL
Clouds: broken clouds at 3600 feet AGL, broken clouds at 4300 feet AGL, overcast cloud deck at 5500 feet AGL
QC Flag:automated observation with no human augmentation
Text:K6B9 200115Z AUTO 27012G19KT 10SM BKN036 BKN042 OVC050 04/M01 A2988 RMK AO2
Temperature: 4.0°C ( 39°F)
Dewpoint: -1.0°C ( 30°F) [RH = 70%]
Pressure (altimeter):29.88 inches Hg (1011.9 mb)
Winds:from the W (270 degrees) at 14 MPH (12 knots; 6.2 m/s) gusting to 22 MPH (19 knots; 9.8 m/s)
Visibility:10 or more sm (16+ km)
Ceiling:3600 feet AGL
Clouds: broken clouds at 3600 feet AGL, broken clouds at 4200 feet AGL, overcast cloud deck at 5000 feet AGL
QC Flag:automated observation with no human augmentation
Text:K6B9 200055Z AUTO 27008G15KT 10SM SCT031 OVC038 04/M00 A2987 RMK AO2
Temperature: 4.0°C ( 39°F)
Dewpoint: 0.0°C ( 32°F) [RH = 75%]
Pressure (altimeter):29.87 inches Hg (1011.6 mb)
Winds:from the W (270 degrees) at 9 MPH (8 knots; 4.1 m/s) gusting to 17 MPH (15 knots; 7.7 m/s)
Visibility:10 or more sm (16+ km)
Ceiling:3800 feet AGL
Clouds: scattered clouds at 3100 feet AGL, overcast cloud deck at 3800 feet AGL
QC Flag:automated observation with no human augmentation
Text:K6B9 200035Z AUTO 27011G17KT 10SM BKN033 BKN043 OVC049 04/M01 A2987 RMK AO2
Temperature: 4.0°C ( 39°F)
Dewpoint: -1.0°C ( 30°F) [RH = 70%]
Pressure (altimeter):29.87 inches Hg (1011.6 mb)
Winds:from the W (270 degrees) at 13 MPH (11 knots; 5.7 m/s) gusting to 20 MPH (17 knots; 8.7 m/s)
Visibility:10 or more sm (16+ km)
Ceiling:3300 feet AGL
Clouds: broken clouds at 3300 feet AGL, broken clouds at 4300 feet AGL, overcast cloud deck at 4900 feet AGL
QC Flag:automated observation with no human augmentation
Text:K6B9 200015Z AUTO 28007KT 240V300 10SM BKN035 BKN043 OVC048 04/M01 A2986 RMK AO2
Temperature: 4.0°C ( 39°F)
Dewpoint: -1.0°C ( 30°F) [RH = 70%]
Pressure (altimeter):29.86 inches Hg (1011.3 mb)
Winds:from the W (280 degrees) at 8 MPH (7 knots; 3.6 m/s)
Visibility:10 or more sm (16+ km)
Ceiling:3500 feet AGL
Clouds: broken clouds at 3500 feet AGL, broken clouds at 4300 feet AGL, overcast cloud deck at 4800 feet AGL
QC Flag:automated observation with no human augmentation
Text:K6B9 192355Z AUTO 28007KT 10SM OVC036 05/M01 A2986 RMK AO2
Temperature: 5.0°C ( 41°F)
Dewpoint: -1.0°C ( 30°F) [RH = 65%]
Pressure (altimeter):29.86 inches Hg (1011.3 mb)
Winds:from the W (280 degrees) at 8 MPH (7 knots; 3.6 m/s)
Visibility:10 or more sm (16+ km)
Ceiling:3600 feet AGL
Clouds: overcast cloud deck at 3600 feet AGL
QC Flag:automated observation with no human augmentation
Text:K6B9 192335Z AUTO 24009KT 210V270 10SM BKN038 OVC044 05/M01 A2984 RMK AO2
Temperature: 5.0°C ( 41°F)
Dewpoint: -1.0°C ( 30°F) [RH = 65%]
Pressure (altimeter):29.84 inches Hg (1010.6 mb)
Winds:from the WSW (240 degrees) at 10 MPH (9 knots; 4.6 m/s)
Visibility:10 or more sm (16+ km)
Ceiling:3800 feet AGL
Clouds: broken clouds at 3800 feet AGL, overcast cloud deck at 4400 feet AGL
QC Flag:automated observation with no human augmentation
Text:K6B9 192315Z AUTO 23008KT 10SM BKN042 OVC050 05/M01 A2984 RMK AO2
Temperature: 5.0°C ( 41°F)
Dewpoint: -1.0°C ( 30°F) [RH = 65%]
Pressure (altimeter):29.84 inches Hg (1010.6 mb)
Winds:from the SW (230 degrees) at 9 MPH (8 knots; 4.1 m/s)
Visibility:10 or more sm (16+ km)
Ceiling:4200 feet AGL
Clouds: broken clouds at 4200 feet AGL, overcast cloud deck at 5000 feet AGL
QC Flag:automated observation with no human augmentation
Text:K6B9 192255Z AUTO 22008G13KT 10SM OVC049 05/M01 A2983 RMK AO2
Temperature: 5.0°C ( 41°F)
Dewpoint: -1.0°C ( 30°F) [RH = 65%]
Pressure (altimeter):29.83 inches Hg (1010.2 mb)
Winds:from the SW (220 degrees) at 9 MPH (8 knots; 4.1 m/s) gusting to 15 MPH (13 knots; 6.7 m/s)
Visibility:10 or more sm (16+ km)
Ceiling:4900 feet AGL
Clouds: overcast cloud deck at 4900 feet AGL
QC Flag:automated observation with no human augmentation
Text:K6B9 192235Z AUTO 22009KT 10SM OVC048 05/M01 A2983 RMK AO2
Temperature: 5.0°C ( 41°F)
Dewpoint: -1.0°C ( 30°F) [RH = 65%]
Pressure (altimeter):29.83 inches Hg (1010.2 mb)
Winds:from the SW (220 degrees) at 10 MPH (9 knots; 4.6 m/s)
Visibility:10 or more sm (16+ km)
Ceiling:4800 feet AGL
Clouds: overcast cloud deck at 4800 feet AGL
QC Flag:automated observation with no human augmentation
Text:K6B9 192215Z AUTO 23010KT 10SM OVC048 05/M01 A2982 RMK AO2
Temperature: 5.0°C ( 41°F)
Dewpoint: -1.0°C ( 30°F) [RH = 65%]
Pressure (altimeter):29.82 inches Hg (1009.9 mb)
Winds:from the SW (230 degrees) at 12 MPH (10 knots; 5.1 m/s)
Visibility:10 or more sm (16+ km)
Ceiling:4800 feet AGL
Clouds: overcast cloud deck at 4800 feet AGL
QC Flag:automated observation with no human augmentation
Text:K6B9 192155Z AUTO 23009G15KT 10SM OVC047 05/M01 A2982 RMK AO2
Temperature: 5.0°C ( 41°F)
Dewpoint: -1.0°C ( 30°F) [RH = 65%]
Pressure (altimeter):29.82 inches Hg (1009.9 mb)
Winds:from the SW (230 degrees) at 10 MPH (9 knots; 4.6 m/s) gusting to 17 MPH (15 knots; 7.7 m/s)
Visibility:10 or more sm (16+ km)
Ceiling:4700 feet AGL
Clouds: overcast cloud deck at 4700 feet AGL
QC Flag:automated observation with no human augmentation
Text:K6B9 192135Z AUTO 22010KT 10SM OVC046 05/M01 A2981 RMK AO2
Temperature: 5.0°C ( 41°F)
Dewpoint: -1.0°C ( 30°F) [RH = 65%]
Pressure (altimeter):29.81 inches Hg (1009.6 mb)
Winds:from the SW (220 degrees) at 12 MPH (10 knots; 5.1 m/s)
Visibility:10 or more sm (16+ km)
Ceiling:4600 feet AGL
Clouds: overcast cloud deck at 4600 feet AGL
QC Flag:automated observation with no human augmentation
Text:K6B9 192115Z AUTO 23012G17KT 10SM OVC046 05/M00 A2979 RMK AO2
Temperature: 5.0°C ( 41°F)
Dewpoint: 0.0°C ( 32°F) [RH = 70%]
Pressure (altimeter):29.79 inches Hg (1008.9 mb)
Winds:from the SW (230 degrees) at 14 MPH (12 knots; 6.2 m/s) gusting to 20 MPH (17 knots; 8.7 m/s)
Visibility:10 or more sm (16+ km)
Ceiling:4600 feet AGL
Clouds: overcast cloud deck at 4600 feet AGL
QC Flag:automated observation with no human augmentation
Text:K6B9 192055Z AUTO 23009KT 190V250 10SM OVC046 05/M00 A2979 RMK AO2
Temperature: 5.0°C ( 41°F)
Dewpoint: 0.0°C ( 32°F) [RH = 70%]
Pressure (altimeter):29.79 inches Hg (1008.9 mb)
Winds:from the SW (230 degrees) at 10 MPH (9 knots; 4.6 m/s)
Visibility:10 or more sm (16+ km)
Ceiling:4600 feet AGL
Clouds: overcast cloud deck at 4600 feet AGL
QC Flag:automated observation with no human augmentation
Text:K6B9 192035Z AUTO 21009KT 10SM FEW037 OVC045 05/M01 A2979 RMK AO2
Temperature: 5.0°C ( 41°F)
Dewpoint: -1.0°C ( 30°F) [RH = 65%]
Pressure (altimeter):29.79 inches Hg (1008.9 mb)
Winds:from the SSW (210 degrees) at 10 MPH (9 knots; 4.6 m/s)
Visibility:10 or more sm (16+ km)
Ceiling:4500 feet AGL
Clouds: few clouds at 3700 feet AGL, overcast cloud deck at 4500 feet AGL
QC Flag:automated observation with no human augmentation
Text:K6B9 192015Z AUTO 21008KT 10SM BKN036 OVC045 05/M01 A2978 RMK AO2
Temperature: 5.0°C ( 41°F)
Dewpoint: -1.0°C ( 30°F) [RH = 65%]
Pressure (altimeter):29.78 inches Hg (1008.5 mb)
Winds:from the SSW (210 degrees) at 9 MPH (8 knots; 4.1 m/s)
Visibility:10 or more sm (16+ km)
Ceiling:3600 feet AGL
Clouds: broken clouds at 3600 feet AGL, overcast cloud deck at 4500 feet AGL
QC Flag:automated observation with no human augmentation
Text:K6B9 191955Z AUTO 22006KT 10SM OVC034 05/M01 A2978 RMK AO2
Temperature: 5.0°C ( 41°F)
Dewpoint: -1.0°C ( 30°F) [RH = 65%]
Pressure (altimeter):29.78 inches Hg (1008.5 mb)
Winds:from the SW (220 degrees) at 7 MPH (6 knots; 3.1 m/s)
Visibility:10 or more sm (16+ km)
Ceiling:3400 feet AGL
Clouds: overcast cloud deck at 3400 feet AGL
QC Flag:automated observation with no human augmentation
Text:K6B9 191935Z AUTO 21009KT 190V250 10SM OVC032 05/M01 A2977 RMK AO2
Temperature: 5.0°C ( 41°F)
Dewpoint: -1.0°C ( 30°F) [RH = 65%]
Pressure (altimeter):29.77 inches Hg (1008.2 mb)
Winds:from the SSW (210 degrees) at 10 MPH (9 knots; 4.6 m/s)
Visibility:10 or more sm (16+ km)
Ceiling:3200 feet AGL
Clouds: overcast cloud deck at 3200 feet AGL
QC Flag:automated observation with no human augmentation
Text:K6B9 191915Z AUTO 20006G12KT 10SM OVC031 05/M01 A2976 RMK AO2
Temperature: 5.0°C ( 41°F)
Dewpoint: -1.0°C ( 30°F) [RH = 65%]
Pressure (altimeter):29.76 inches Hg (1007.9 mb)
Winds:from the SSW (200 degrees) at 7 MPH (6 knots; 3.1 m/s) gusting to 14 MPH (12 knots; 6.2 m/s)
Visibility:10 or more sm (16+ km)
Ceiling:3100 feet AGL
Clouds: overcast cloud deck at 3100 feet AGL
QC Flag:automated observation with no human augmentation
Text:K6B9 191855Z AUTO 21008G14KT 170V230 10SM OVC031 04/M02 A2976 RMK AO2
Temperature: 4.0°C ( 39°F)
Dewpoint: -2.0°C ( 28°F) [RH = 65%]
Pressure (altimeter):29.76 inches Hg (1007.9 mb)
Winds:from the SSW (210 degrees) at 9 MPH (8 knots; 4.1 m/s) gusting to 16 MPH (14 knots; 7.2 m/s)
Visibility:10 or more sm (16+ km)
Ceiling:3100 feet AGL
Clouds: overcast cloud deck at 3100 feet AGL
QC Flag:automated observation with no human augmentation
Text:K6B9 191835Z AUTO 21008KT 160V230 10SM OVC030 04/M02 A2975 RMK AO2
Temperature: 4.0°C ( 39°F)
Dewpoint: -2.0°C ( 28°F) [RH = 65%]
Pressure (altimeter):29.75 inches Hg (1007.5 mb)
Winds:from the SSW (210 degrees) at 9 MPH (8 knots; 4.1 m/s)
Visibility:10 or more sm (16+ km)
Ceiling:3000 feet AGL
Clouds: overcast cloud deck at 3000 feet AGL
QC Flag:automated observation with no human augmentation
Text:K6B9 191815Z AUTO 20007G14KT 170V250 10SM OVC030 04/M02 A2975 RMK AO2
Temperature: 4.0°C ( 39°F)
Dewpoint: -2.0°C ( 28°F) [RH = 65%]
Pressure (altimeter):29.75 inches Hg (1007.5 mb)
Winds:from the SSW (200 degrees) at 8 MPH (7 knots; 3.6 m/s) gusting to 16 MPH (14 knots; 7.2 m/s)
Visibility:10 or more sm (16+ km)
Ceiling:3000 feet AGL
Clouds: overcast cloud deck at 3000 feet AGL
QC Flag:automated observation with no human augmentation
Text:K6B9 191755Z AUTO 20008G17KT 150V230 10SM OVC029 04/M03 A2975 RMK AO2
Temperature: 4.0°C ( 39°F)
Dewpoint: -3.0°C ( 27°F) [RH = 60%]
Pressure (altimeter):29.75 inches Hg (1007.5 mb)
Winds:from the SSW (200 degrees) at 9 MPH (8 knots; 4.1 m/s) gusting to 20 MPH (17 knots; 8.7 m/s)
Visibility:10 or more sm (16+ km)
Ceiling:2900 feet AGL
Clouds: overcast cloud deck at 2900 feet AGL
QC Flag:automated observation with no human augmentation
Text:K6B9 191735Z AUTO 20007G16KT 10SM OVC029 04/M03 A2975 RMK AO2
Temperature: 4.0°C ( 39°F)
Dewpoint: -3.0°C ( 27°F) [RH = 60%]
Pressure (altimeter):29.75 inches Hg (1007.5 mb)
Winds:from the SSW (200 degrees) at 8 MPH (7 knots; 3.6 m/s) gusting to 18 MPH (16 knots; 8.2 m/s)
Visibility:10 or more sm (16+ km)
Ceiling:2900 feet AGL
Clouds: overcast cloud deck at 2900 feet AGL
QC Flag:automated observation with no human augmentation
Text:K6B9 191715Z AUTO 21012G18KT 10SM OVC029 04/M03 A2975 RMK AO2
Temperature: 4.0°C ( 39°F)
Dewpoint: -3.0°C ( 27°F) [RH = 60%]
Pressure (altimeter):29.75 inches Hg (1007.5 mb)
Winds:from the SSW (210 degrees) at 14 MPH (12 knots; 6.2 m/s) gusting to 21 MPH (18 knots; 9.3 m/s)
Visibility:10 or more sm (16+ km)
Ceiling:2900 feet AGL
Clouds: overcast cloud deck at 2900 feet AGL
QC Flag:automated observation with no human augmentation
Text:K6B9 191655Z AUTO 21011G18KT 10SM OVC030 03/M04 A2976 RMK AO2
Temperature: 3.0°C ( 37°F)
Dewpoint: -4.0°C ( 25°F) [RH = 60%]
Pressure (altimeter):29.76 inches Hg (1007.9 mb)
Winds:from the SSW (210 degrees) at 13 MPH (11 knots; 5.7 m/s) gusting to 21 MPH (18 knots; 9.3 m/s)
Visibility:10 or more sm (16+ km)
Ceiling:3000 feet AGL
Clouds: overcast cloud deck at 3000 feet AGL
QC Flag:automated observation with no human augmentation
Text:K6B9 191635Z AUTO 21008G21KT 160V230 10SM OVC030 03/M04 A2977 RMK AO2
Temperature: 3.0°C ( 37°F)
Dewpoint: -4.0°C ( 25°F) [RH = 60%]
Pressure (altimeter):29.77 inches Hg (1008.2 mb)
Winds:from the SSW (210 degrees) at 9 MPH (8 knots; 4.1 m/s) gusting to 24 MPH (21 knots; 10.8 m/s)
Visibility:10 or more sm (16+ km)
Ceiling:3000 feet AGL
Clouds: overcast cloud deck at 3000 feet AGL
QC Flag:automated observation with no human augmentation
Text:K6B9 191615Z AUTO 19010G20KT 160V230 10SM OVC031 03/M04 A2977 RMK AO2
Temperature: 3.0°C ( 37°F)
Dewpoint: -4.0°C ( 25°F) [RH = 60%]
Pressure (altimeter):29.77 inches Hg (1008.2 mb)
Winds:from the S (190 degrees) at 12 MPH (10 knots; 5.1 m/s) gusting to 23 MPH (20 knots; 10.3 m/s)
Visibility:10 or more sm (16+ km)
Ceiling:3100 feet AGL
Clouds: overcast cloud deck at 3100 feet AGL
QC Flag:automated observation with no human augmentation
Text:K6B9 191555Z AUTO 20011G17KT 10SM OVC032 02/M05 A2978 RMK AO2
Temperature: 2.0°C ( 36°F)
Dewpoint: -5.0°C ( 23°F) [RH = 60%]
Pressure (altimeter):29.78 inches Hg (1008.5 mb)
Winds:from the SSW (200 degrees) at 13 MPH (11 knots; 5.7 m/s) gusting to 20 MPH (17 knots; 8.7 m/s)
Visibility:10 or more sm (16+ km)
Ceiling:3200 feet AGL
Clouds: overcast cloud deck at 3200 feet AGL
QC Flag:automated observation with no human augmentation
Text:K6B9 191535Z AUTO 20008G18KT 160V230 10SM OVC032 02/M05 A2978 RMK AO2
Temperature: 2.0°C ( 36°F)
Dewpoint: -5.0°C ( 23°F) [RH = 60%]
Pressure (altimeter):29.78 inches Hg (1008.5 mb)
Winds:from the SSW (200 degrees) at 9 MPH (8 knots; 4.1 m/s) gusting to 21 MPH (18 knots; 9.3 m/s)
Visibility:10 or more sm (16+ km)
Ceiling:3200 feet AGL
Clouds: overcast cloud deck at 3200 feet AGL
QC Flag:automated observation with no human augmentation
Text:K6B9 191515Z AUTO 20010G19KT 170V240 10SM BKN032 BKN070 BKN090 02/M06 A2978 RMK AO2
Temperature: 2.0°C ( 36°F)
Dewpoint: -6.0°C ( 21°F) [RH = 55%]
Pressure (altimeter):29.78 inches Hg (1008.5 mb)
Winds:from the SSW (200 degrees) at 12 MPH (10 knots; 5.1 m/s) gusting to 22 MPH (19 knots; 9.8 m/s)
Visibility:10 or more sm (16+ km)
Ceiling:3200 feet AGL
Clouds: broken clouds at 3200 feet AGL, broken clouds at 7000 feet AGL, broken clouds at 9000 feet AGL
QC Flag:automated observation with no human augmentation
Text:K6B9 191455Z AUTO 20011G22KT 140V230 10SM FEW032 SCT070 BKN090 01/M06 A2977 RMK AO2
Temperature: 1.0°C ( 34°F)
Dewpoint: -6.0°C ( 21°F) [RH = 59%]
Pressure (altimeter):29.77 inches Hg (1008.2 mb)
Winds:from the SSW (200 degrees) at 13 MPH (11 knots; 5.7 m/s) gusting to 25 MPH (22 knots; 11.3 m/s)
Visibility:10 or more sm (16+ km)
Ceiling:9000 feet AGL
Clouds: few clouds at 3200 feet AGL, scattered clouds at 7000 feet AGL, broken clouds at 9000 feet AGL
QC Flag:automated observation with no human augmentation
Text:K6B9 191435Z AUTO 21012G20KT 180V240 10SM SCT032 SCT050 BKN110 01/M06 A2978 RMK AO2
Temperature: 1.0°C ( 34°F)
Dewpoint: -6.0°C ( 21°F) [RH = 59%]
Pressure (altimeter):29.78 inches Hg (1008.5 mb)
Winds:from the SSW (210 degrees) at 14 MPH (12 knots; 6.2 m/s) gusting to 23 MPH (20 knots; 10.3 m/s)
Visibility:10 or more sm (16+ km)
Ceiling:11000 feet AGL
Clouds: scattered clouds at 3200 feet AGL, scattered clouds at 5000 feet AGL, broken clouds at 11000 feet AGL
QC Flag:automated observation with no human augmentation